logo tempoitalia

Diretta Meteo Norton, Stati Uniti (USA)lunedì 31 agosto ore 01:35

Mappa
Sereno 25 °C Nuvoloso 24 Ore: T.min 21 T.max 36
Ponente Nord/NOvest Km/h 16.7 Punto di rugiada: 18 °C Umidità: 65% Visibilità: 10 Km
Il sole sorge alle: 07:06 Il sole tramonta alle: 20:12
31 Agosto 2026 01:35 tempo osservato: Nuvoloso Nuvoloso 25 65 1013 vento: Nord N/NO 16.7
31 Agosto 2026 01:15 tempo osservato: Poco Nuvoloso Poco Nuvoloso 24 73 1014 vento: Nord NO 9.3
31 Agosto 2026 00:55 tempo osservato: Sereno Sereno 24 69 1014 vento: Nord S/SO 7.4
31 Agosto 2026 00:35 tempo osservato: Sereno Sereno 23 78 1014 vento: Nord SO 9.3
31 Agosto 2026 00:15 tempo osservato: Sereno Sereno 23 78 1013 vento: Nord O/SO 7.4
30 Agosto 2026 23:55 tempo osservato: Sereno Sereno 24 69 1012 vento: Nord N 5.5
30 Agosto 2026 23:35 tempo osservato: Sereno Sereno 23 73 1012 vento: Nord N/NO 7.4
30 Agosto 2026 23:15 tempo osservato: Sereno Sereno 23 78 1012 vento: Nord N 0
30 Agosto 2026 22:55 tempo osservato: Sereno Sereno 22 78 1012 vento: Nord N 5.5
30 Agosto 2026 22:35 tempo osservato: Sereno Sereno 22 73 1012 vento: Nord N 11.1
30 Agosto 2026 22:15 tempo osservato: Sereno Sereno 22 78 1012 vento: Nord N 9.3
30 Agosto 2026 21:55 tempo osservato: Sereno Sereno 22 83 1012 vento: Nord N 11.1
30 Agosto 2026 21:35 tempo osservato: Sereno Sereno 26 65 1012 vento: Nord N/NE 9.3
30 Agosto 2026 21:15 tempo osservato: Sereno Sereno 26 65 1012 vento: Nord NE 7.4
30 Agosto 2026 20:55 tempo osservato: Sereno Sereno 27 54 1012 vento: Nord NE 7.4
30 Agosto 2026 20:35 tempo osservato: Sereno Sereno 27 57 1011 vento: Nord N/NO 7.4
30 Agosto 2026 20:15 tempo osservato: Sereno Sereno 29 51 1011 vento: Nord N 3.7
30 Agosto 2026 19:55 tempo osservato: Sereno Sereno 31 43 1011 vento: Nord N 3.7
30 Agosto 2026 19:35 tempo osservato: Sereno Sereno 33 41 1011 vento: Nord N 3.7
30 Agosto 2026 19:15 tempo osservato: Sereno Sereno 34 34 1011 vento: Nord N 5.5
30 Agosto 2026 18:55 tempo osservato: Sereno Sereno 32 40 1011 vento: Nord N 1.8
30 Agosto 2026 18:35 tempo osservato: Sereno Sereno 34 30 1011 vento: Nord N 5.5
30 Agosto 2026 18:15 tempo osservato: Sereno Sereno 35 26 1011 vento: Nord N 5.5
30 Agosto 2026 17:55 tempo osservato: Sereno Sereno 35 26 1011 vento: Nord N 1.8
30 Agosto 2026 17:35 tempo osservato: Sereno Sereno 36 25 1011 vento: Nord E 7.4
30 Agosto 2026 17:15 tempo osservato: Sereno Sereno 36 25 1011 vento: Nord N 3.7
30 Agosto 2026 16:55 tempo osservato: Sereno Sereno 35 26 1011 vento: Nord N 1.8
30 Agosto 2026 16:35 tempo osservato: Sereno Sereno 36 23 1011 vento: Nord N 5.5
30 Agosto 2026 16:15 tempo osservato: Sereno Sereno 36 25 1011 vento: Nord N 5.5
30 Agosto 2026 15:55 tempo osservato: Sereno Sereno 35 24 1011 vento: Nord N 5.5
30 Agosto 2026 15:35 tempo osservato: Sereno Sereno 35 24 1011 vento: Nord E/NE 11.1
30 Agosto 2026 15:15 tempo osservato: Sereno Sereno 34 28 1011 vento: Nord N 5.5
30 Agosto 2026 14:55 tempo osservato: Sereno Sereno 34 30 1011 vento: Nord N/NE 11.1
30 Agosto 2026 14:35 tempo osservato: Sereno Sereno 34 30 1011 vento: Nord N 11.1
30 Agosto 2026 14:15 tempo osservato: Sereno Sereno 33 31 1011 vento: Nord N/NO 13
30 Agosto 2026 13:55 tempo osservato: Sereno Sereno 33 36 1011 vento: Nord N/NO 14.8
30 Agosto 2026 13:35 tempo osservato: Sereno Sereno 33 33 1011 vento: Nord N/NO 18.5
30 Agosto 2026 13:15 tempo osservato: Sereno Sereno 31 37 1011 vento: Nord N/NO 13
30 Agosto 2026 12:55 tempo osservato: Sereno Sereno 32 38 1011 vento: Nord N/NO 11.1
30 Agosto 2026 12:35 tempo osservato: Sereno Sereno 30 51 1012 vento: Nord O/NO 22.2
30 Agosto 2026 12:15 tempo osservato: Sereno Sereno 30 48 1012 vento: Nord NO 16.7
30 Agosto 2026 11:55 tempo osservato: Sereno Sereno 29 51 1012 vento: Nord NO 16.7
30 Agosto 2026 11:35 tempo osservato: Sereno Sereno 29 51 1012 vento: Nord N/NO 11.1
30 Agosto 2026 11:15 tempo osservato: Sereno Sereno 28 54 1012 vento: Nord NO 20.3
30 Agosto 2026 10:55 tempo osservato: Sereno Sereno 28 54 1012 vento: Nord NO 22.2
30 Agosto 2026 10:35 tempo osservato: Sereno Sereno 26 65 1012 vento: Nord NO 20.3
30 Agosto 2026 10:15 tempo osservato: Sereno Sereno 25 65 1012 vento: Nord NO 13
30 Agosto 2026 09:55 tempo osservato: Sereno Sereno 25 65 1011 vento: Nord NO 16.7
30 Agosto 2026 09:35 tempo osservato: Sereno Sereno 24 69 1011 vento: Nord NO 11.1
30 Agosto 2026 09:15 tempo osservato: Sereno Sereno 22 78 1012 vento: Nord O/NO 14.8
30 Agosto 2026 08:55 tempo osservato: Sereno Sereno 22 78 1011 vento: Nord NO 18.5
30 Agosto 2026 08:35 tempo osservato: Sereno Sereno 21 82 1011 vento: Nord NO 14.8
30 Agosto 2026 08:15 tempo osservato: Sereno Sereno 21 82 1011 vento: Nord NO 13
30 Agosto 2026 07:55 tempo osservato: Sereno Sereno 21 82 1011 vento: Nord NO 14.8
30 Agosto 2026 07:35 tempo osservato: Sereno Sereno 21 82 1010 vento: Nord NO 14.8
30 Agosto 2026 07:15 tempo osservato: Sereno Sereno 21 82 1010 vento: Nord O/NO 13
30 Agosto 2026 06:55 tempo osservato: Sereno Sereno 21 82 1010 vento: Nord O/NO 14.8
30 Agosto 2026 06:35 tempo osservato: Sereno Sereno 21 88 1010 vento: Nord O 11.1
30 Agosto 2026 06:15 tempo osservato: Sereno Sereno 21 88 1010 vento: Nord O 11.1
30 Agosto 2026 05:55 tempo osservato: Sereno Sereno 22 78 1009 vento: Nord N 3.7
30 Agosto 2026 05:35 tempo osservato: Sereno Sereno 22 83 1009 vento: Nord N 3.7
30 Agosto 2026 05:15 tempo osservato: Sereno Sereno 22 83 1009 vento: Nord E 7.4
30 Agosto 2026 04:55 tempo osservato: Sereno Sereno 22 83 1009 vento: Nord E/SE 11.1
30 Agosto 2026 04:35 tempo osservato: Sereno Sereno 22 83 1009 vento: Nord E 13
30 Agosto 2026 04:15 tempo osservato: Sereno Sereno 23 73 1010 vento: Nord E 13
30 Agosto 2026 03:55 tempo osservato: Sereno Sereno 23 73 1010 vento: Nord E 13
30 Agosto 2026 03:35 tempo osservato: Sereno Sereno 23 73 1010 vento: Nord E/NE 11.1
30 Agosto 2026 03:15 tempo osservato: Sereno Sereno 23 73 1010 vento: Nord NE 14.8
30 Agosto 2026 02:55 tempo osservato: Sereno Sereno 24 69 1010 vento: Nord N/NE 18.5
30 Agosto 2026 02:35 tempo osservato: Sereno Sereno 25 61 1010 vento: Nord N 14.8
30 Agosto 2026 02:15 tempo osservato: Sereno Sereno 25 61 1011 vento: Nord N 3.7
30 Agosto 2026 01:55 tempo osservato: Sereno Sereno 27 54 1011 vento: Nord O/SO 7.4
30 Agosto 2026 01:35 tempo osservato: Sereno Sereno 28 48 1011 vento: Nord O/SO 16.7